createdAt,value
2017-03-06T00:00:35.026Z,69.48
2017-03-06T00:01:45.830Z,69.67
2017-03-06T00:02:56.219Z,69.76
2017-03-06T00:04:06.236Z,69.85
2017-03-06T00:05:16.610Z,69.57
2017-03-06T00:06:27.394Z,69.76
2017-03-06T00:07:38.178Z,69.48
2017-03-06T00:08:48.948Z,69.57
2017-03-06T00:09:59.344Z,69.85
2017-03-06T00:11:09.719Z,69.76
2017-03-06T00:12:20.108Z,69.76
2017-03-06T00:13:30.490Z,69.57
2017-03-06T00:14:40.876Z,69.29
2017-03-06T00:15:51.264Z,69.29
2017-03-06T00:17:01.647Z,69.38
2017-03-06T00:18:12.413Z,69.38
2017-03-06T00:19:23.211Z,69.57
2017-03-06T00:20:33.577Z,69.48
2017-03-06T00:21:44.356Z,69.38
2017-03-06T00:22:55.145Z,69.38
2017-03-06T00:24:05.534Z,69.38
2017-03-06T00:25:16.314Z,69.29
2017-03-06T00:26:26.324Z,69.25
2017-03-06T00:27:36.721Z,69.25
2017-03-06T00:28:47.118Z,69.25
2017-03-06T00:29:57.095Z,69.25
2017-03-06T00:31:07.537Z,69.54
2017-03-06T00:32:18.333Z,69.35
2017-03-06T00:33:28.751Z,69.19
2017-03-06T00:34:39.166Z,69.35
2017-03-06T00:35:49.555Z,69.48
2017-03-06T00:37:00.336Z,69.35
2017-03-06T00:38:11.123Z,69.54
2017-03-06T00:39:22.173Z,69.54
2017-03-06T00:40:32.550Z,69.25
2017-03-06T00:41:43.346Z,69.54
2017-03-06T00:42:54.149Z,69.25
2017-03-06T00:44:04.931Z,69.63
2017-03-06T00:45:15.297Z,69.35
2017-03-06T00:46:25.306Z,69.25
2017-03-06T00:47:36.092Z,69.25
2017-03-06T00:48:46.864Z,69.35
2017-03-06T00:49:57.235Z,69.25
2017-03-06T00:51:07.998Z,69.54
2017-03-06T00:52:18.385Z,69.25
2017-03-06T00:53:29.158Z,69.35
2017-03-06T00:54:39.930Z,69.35
2017-03-06T00:55:49.909Z,69.35
2017-03-06T00:57:00.746Z,69.25
2017-03-06T00:58:11.135Z,69.25
2017-03-06T00:59:21.123Z,69.54
2017-03-06T01:00:31.910Z,69.25
2017-03-06T01:01:42.694Z,69.31
2017-03-06T01:02:52.679Z,69.5
2017-03-06T01:04:02.686Z,69.02
2017-03-06T01:05:13.072Z,69.12
2017-03-06T01:06:23.078Z,68.93
2017-03-06T01:07:33.855Z,69.35
2017-03-06T01:08:44.281Z,68.93
2017-03-06T01:09:55.060Z,69.21
2017-03-06T01:11:05.839Z,69.21
2017-03-06T01:12:16.236Z,69.12
2017-03-06T01:13:26.645Z,68.93
2017-03-06T01:14:37.031Z,69.12
2017-03-06T01:15:47.462Z,69.12
2017-03-06T01:16:58.234Z,69.02
2017-03-06T01:18:09.030Z,69.41
2017-03-06T01:19:19.813Z,69.5
2017-03-06T01:20:30.194Z,69.02
2017-03-06T01:21:40.975Z,69.21
2017-03-06T01:22:51.366Z,68.84
2017-03-06T01:24:02.125Z,68.46
2017-03-06T01:25:12.141Z,69.02
2017-03-06T01:26:22.542Z,69.41
2017-03-06T01:27:33.342Z,68.36
2017-03-06T01:28:44.123Z,68.93
2017-03-06T01:29:54.509Z,69.12
2017-03-06T01:31:04.921Z,69.12
2017-03-06T01:32:14.906Z,68.93
2017-03-06T01:33:24.888Z,69.02
2017-03-06T01:34:35.673Z,69.12
2017-03-06T01:35:46.473Z,69.5
2017-03-06T01:36:56.879Z,69.12
2017-03-06T01:38:07.668Z,68.8
2017-03-06T01:39:18.448Z,68.93
2017-03-06T01:40:28.814Z,69.21
2017-03-06T01:41:39.187Z,69.12
2017-03-06T01:42:49.953Z,69.21
2017-03-06T01:44:00.722Z,69.31
2017-03-06T01:45:11.121Z,69.31
2017-03-06T01:46:21.496Z,69.21
2017-03-06T01:47:32.279Z,69.21
2017-03-06T01:48:42.305Z,69.31
2017-03-06T01:49:53.082Z,69.31
2017-03-06T01:51:03.873Z,68.93
2017-03-06T01:52:13.869Z,69.21
2017-03-06T01:53:24.263Z,69.12
2017-03-06T01:54:35.078Z,69.5
2017-03-06T01:55:45.471Z,69.12
2017-03-06T01:56:55.475Z,69.02
2017-03-06T01:58:05.877Z,68.93
2017-03-06T01:59:15.867Z,68.36
2017-03-06T02:00:26.238Z,68.87
2017-03-06T02:01:37.072Z,69.25
2017-03-06T02:02:47.834Z,68.49
2017-03-06T02:03:58.614Z,68.4
2017-03-06T02:05:09.395Z,68.4
2017-03-06T02:06:19.378Z,69.06
2017-03-06T02:07:29.753Z,68.3
2017-03-06T02:08:40.534Z,68.59
2017-03-06T02:09:50.949Z,68.4
2017-03-06T02:11:00.925Z,68.62
2017-03-06T02:12:11.301Z,69.57
2017-03-06T02:13:21.700Z,69.57
2017-03-06T02:14:32.070Z,69.19
2017-03-06T02:15:42.485Z,69.29
2017-03-06T02:16:52.486Z,69.19
2017-03-06T02:18:02.913Z,69.1
2017-03-06T02:19:13.681Z,69.38
2017-03-06T02:20:24.466Z,69.19
2017-03-06T02:21:35.264Z,69.29
2017-03-06T02:22:46.024Z,69.57
2017-03-06T02:23:56.392Z,69.7
2017-03-06T02:25:06.776Z,69.51
2017-03-06T02:26:17.583Z,69.51
2017-03-06T02:27:28.007Z,69.42
2017-03-06T02:28:38.778Z,69.7
2017-03-06T02:29:49.146Z,69.51
2017-03-06T02:30:59.572Z,69.79
2017-03-06T02:32:09.953Z,69.79
2017-03-06T02:33:19.960Z,69.79
2017-03-06T02:34:30.382Z,70.18
2017-03-06T02:35:40.773Z,69.89
2017-03-06T02:36:51.570Z,69.99
2017-03-06T02:38:02.364Z,70.37
2017-03-06T02:39:12.759Z,70.37
2017-03-06T02:40:22.756Z,70.08
2017-03-06T02:41:33.155Z,69.99
2017-03-06T02:42:43.946Z,70.08
2017-03-06T02:43:54.330Z,70.08
2017-03-06T02:45:05.116Z,70.18
2017-03-06T02:46:15.494Z,70.08
2017-03-06T02:47:25.873Z,70.18
2017-03-06T02:48:36.247Z,70.18
2017-03-06T02:49:47.028Z,70.37
2017-03-06T02:50:57.436Z,70.37
2017-03-06T02:52:07.840Z,70.47
2017-03-06T02:53:18.206Z,70.37
2017-03-06T02:54:28.976Z,70.47
2017-03-06T02:55:39.385Z,70.47
2017-03-06T02:56:50.165Z,70.47
2017-03-06T02:58:00.935Z,70.47
2017-03-06T02:59:11.730Z,70.37
2017-03-06T03:00:22.100Z,70.08
2017-03-06T03:01:32.873Z,70.08
2017-03-06T03:32:15.182Z,67.28
2017-03-06T03:33:25.947Z,67.94
2017-03-06T03:34:35.933Z,69.09
2017-03-06T03:35:46.316Z,69.85
2017-03-06T03:36:57.084Z,70.7
2017-03-06T03:38:07.458Z,70.7
2017-03-06T03:39:18.227Z,71.69
2017-03-06T03:40:28.594Z,71.22
2017-03-06T03:41:38.988Z,71.69
2017-03-06T03:42:49.760Z,71.53
2017-03-06T03:44:00.128Z,71.82
2017-03-06T03:45:10.528Z,71.82
2017-03-06T03:46:20.515Z,71.91
2017-03-06T03:47:30.904Z,71.86
2017-03-06T03:48:41.669Z,71.47
2017-03-06T03:49:52.438Z,71.57
2017-03-06T03:51:03.204Z,71.47
2017-03-06T03:52:13.991Z,71.86
2017-03-06T03:53:24.378Z,70.81
2017-03-06T03:54:33.969Z,70.94
2017-03-06T03:55:44.769Z,71.13
2017-03-06T03:56:55.535Z,70.84
2017-03-06T03:58:06.309Z,71.32
2017-03-06T03:59:17.087Z,70.94
2017-03-06T04:00:27.478Z,70.94
2017-03-06T04:01:37.896Z,71.17
2017-03-06T04:02:48.687Z,71.26
2017-03-06T04:03:59.459Z,71.07
2017-03-06T04:05:09.450Z,71.26
2017-03-06T04:06:19.466Z,71.17
2017-03-06T04:07:30.242Z,71.36
2017-03-06T04:08:39.843Z,70.88
2017-03-06T04:09:50.602Z,70.78
2017-03-06T04:11:01.408Z,70.97
2017-03-06T04:12:12.177Z,70.69
2017-03-06T04:13:22.955Z,70.97
2017-03-06T04:14:33.336Z,70.88
2017-03-06T04:15:43.730Z,70.97
2017-03-06T04:16:54.505Z,70.88
2017-03-06T04:18:04.503Z,70.97
2017-03-06T04:19:14.492Z,70.88
2017-03-06T04:20:25.268Z,70.88
2017-03-06T04:21:36.068Z,70.88
2017-03-06T04:22:46.036Z,70.59
2017-03-06T04:23:56.831Z,70.88
2017-03-06T04:25:07.618Z,70.69
2017-03-06T04:26:18.404Z,70.92
2017-03-06T04:27:29.182Z,70.92
2017-03-06T04:28:39.559Z,70.88
2017-03-06T04:29:50.345Z,70.97
2017-03-06T04:31:00.734Z,70.92
2017-03-06T04:32:11.538Z,70.59
2017-03-06T04:33:21.942Z,70.72
2017-03-06T04:34:32.336Z,70.82
2017-03-06T04:35:43.089Z,70.92
2017-03-06T04:36:53.468Z,70.97
2017-03-06T04:38:03.467Z,70.72
2017-03-06T04:39:14.245Z,71.01
2017-03-06T04:40:25.024Z,70.72
2017-03-06T04:41:35.847Z,70.82
2017-03-06T04:42:46.294Z,70.82
2017-03-06T04:43:57.096Z,70.82
2017-03-06T04:45:07.912Z,70.72
2017-03-06T04:46:18.285Z,70.92
2017-03-06T04:47:28.290Z,70.82
2017-03-06T04:48:39.073Z,70.92
2017-03-06T04:49:49.072Z,70.72
2017-03-06T04:50:58.696Z,71.3
2017-03-06T04:52:08.690Z,70.92
2017-03-06T04:53:19.066Z,70.82
2017-03-06T04:54:29.831Z,70.82
2017-03-06T04:55:40.224Z,71.01
2017-03-06T04:56:51.001Z,70.78
2017-03-06T04:58:01.621Z,70.92
2017-03-06T04:59:11.988Z,70.82
2017-03-06T05:00:21.985Z,70.78
2017-03-06T05:01:31.587Z,70.82
2017-03-06T05:02:42.000Z,70.72
2017-03-06T05:03:52.776Z,70.72
2017-03-06T05:05:02.778Z,70.72
2017-03-06T05:06:13.158Z,70.88
2017-03-06T05:07:23.941Z,70.82
2017-03-06T05:08:34.318Z,70.69
2017-03-06T05:09:45.153Z,70.92
2017-03-06T05:10:55.942Z,70.92
2017-03-06T05:12:06.762Z,70.72
2017-03-06T05:13:17.138Z,70.88
2017-03-06T05:14:27.172Z,70.82
2017-03-06T05:15:37.946Z,70.63
2017-03-06T05:16:48.374Z,70.82
2017-03-06T05:17:58.820Z,70.72
2017-03-06T05:19:08.800Z,71.01
2017-03-06T05:20:19.212Z,70.82
2017-03-06T05:21:28.844Z,70.78
2017-03-06T05:22:39.603Z,70.59
2017-03-06T05:23:49.578Z,71.36
2017-03-06T05:24:59.966Z,71.3
2017-03-06T05:26:10.380Z,71.26
2017-03-06T05:27:20.749Z,71.17
2017-03-06T05:28:31.531Z,70.59
2017-03-06T05:29:42.333Z,70.97
2017-03-06T05:30:53.136Z,70.97
2017-03-06T05:32:03.906Z,70.88
2017-03-06T05:33:14.693Z,70.88
2017-03-06T05:34:25.466Z,70.63
2017-03-06T05:35:36.255Z,70.59
2017-03-06T05:36:47.012Z,70.69
2017-03-06T05:37:56.614Z,70.88
2017-03-06T05:39:06.978Z,70.88
2017-03-06T05:40:17.357Z,70.88
2017-03-06T05:41:26.977Z,70.4
2017-03-06T05:42:37.770Z,70.69
2017-03-06T05:43:48.565Z,70.31
2017-03-06T05:44:58.946Z,70.21
2017-03-06T05:46:09.338Z,70.21
2017-03-06T05:47:20.129Z,70.31
2017-03-06T05:48:30.919Z,70.12
2017-03-06T05:49:41.297Z,70.12
2017-03-06T05:50:52.113Z,70.15
2017-03-06T05:52:02.525Z,70.21
2017-03-06T05:53:12.899Z,70.15
2017-03-06T05:54:23.676Z,70.53
2017-03-06T05:55:34.099Z,70.44
2017-03-06T05:56:44.461Z,70.15
2017-03-06T05:57:55.243Z,70.06
2017-03-06T05:59:06.017Z,69.87
2017-03-06T06:00:16.017Z,69.87
2017-03-06T06:01:25.642Z,69.39
2017-03-06T06:02:36.028Z,69.68
2017-03-06T06:03:46.809Z,69.68
2017-03-06T06:04:56.795Z,69.77
2017-03-06T06:06:07.593Z,69.48
2017-03-06T06:07:18.384Z,69.68
2017-03-06T06:08:28.760Z,69.68
2017-03-06T06:09:39.136Z,69.81
2017-03-06T06:10:48.733Z,70
2017-03-06T06:11:59.144Z,69.81
2017-03-06T06:13:09.554Z,69.43
2017-03-06T06:14:20.349Z,69.43
2017-03-06T06:15:31.145Z,69.43
2017-03-06T06:16:41.929Z,69.62
2017-03-06T06:17:52.334Z,69.43
2017-03-06T06:19:02.732Z,69.43
2017-03-06T06:20:12.317Z,69.71
2017-03-06T06:21:22.703Z,69.43
2017-03-06T06:22:33.510Z,69.62
2017-03-06T06:23:43.923Z,69.62
2017-03-06T06:24:54.299Z,69.52
2017-03-06T06:26:05.111Z,69.14
2017-03-06T06:27:15.913Z,69.14
2017-03-06T06:28:25.923Z,69.17
2017-03-06T06:29:36.333Z,69.46
2017-03-06T06:30:47.112Z,69.46
2017-03-06T06:31:57.120Z,69.37
2017-03-06T06:33:07.892Z,69.46
2017-03-06T06:34:17.887Z,68.79
2017-03-06T06:35:28.284Z,69.37
2017-03-06T06:36:38.652Z,69.27
2017-03-06T06:37:49.431Z,69.56
2017-03-06T06:38:59.834Z,68.7
2017-03-06T06:40:10.638Z,69.37
2017-03-06T06:41:21.027Z,69.27
2017-03-06T06:42:31.812Z,68.92
2017-03-06T06:43:42.626Z,68.73
2017-03-06T06:44:52.630Z,68.73
2017-03-06T06:46:03.435Z,69.02
2017-03-06T06:47:14.467Z,68.67
2017-03-06T06:48:24.845Z,68.92
2017-03-06T06:49:35.230Z,69.21
2017-03-06T06:50:46.051Z,69.11
2017-03-06T06:51:56.475Z,69.11
2017-03-06T06:53:07.235Z,69.15
2017-03-06T06:54:17.260Z,69.34
2017-03-06T06:55:27.649Z,69.05
2017-03-06T06:56:38.066Z,69.24
2017-03-06T06:57:48.887Z,69.15
2017-03-06T06:58:59.258Z,68.76
2017-03-06T07:00:10.051Z,68.67
2017-03-06T07:01:20.463Z,68.76
2017-03-06T07:02:30.858Z,68.67
2017-03-06T07:03:41.655Z,68.19
2017-03-06T07:04:52.428Z,68.38
2017-03-06T07:06:03.206Z,68.29
2017-03-06T07:07:14.001Z,68
2017-03-06T07:08:24.808Z,68.13
2017-03-06T07:09:34.408Z,68.13
2017-03-06T07:10:44.391Z,67.84
2017-03-06T07:11:55.190Z,67.46
2017-03-06T07:13:05.993Z,67.59
2017-03-06T07:14:16.788Z,67.49
2017-03-06T07:15:26.803Z,67.49
2017-03-06T07:16:37.578Z,67.59
2017-03-06T07:17:47.586Z,67.59
2017-03-06T07:18:57.993Z,67.97
2017-03-06T07:20:08.756Z,67.88
2017-03-06T07:21:19.548Z,67.34
2017-03-06T07:22:29.957Z,66.96
2017-03-06T07:23:40.368Z,67.53
2017-03-06T07:24:50.775Z,67.72
2017-03-06T07:26:01.607Z,67.05
2017-03-06T07:27:12.023Z,66.96
2017-03-06T07:28:22.796Z,67.76
2017-03-06T07:29:33.580Z,67.66
2017-03-06T07:30:43.970Z,67.85
2017-03-06T07:31:54.369Z,66.99
2017-03-06T07:33:05.203Z,67.27
2017-03-06T07:34:15.981Z,67.76
2017-03-06T07:35:26.772Z,67.66
2017-03-06T07:36:37.576Z,67.85
2017-03-06T07:37:48.385Z,67.88
2017-03-06T07:38:59.424Z,67.69
2017-03-06T07:40:10.225Z,67.5
2017-03-06T07:41:20.603Z,67.5
2017-03-06T07:42:31.372Z,67.88
2017-03-06T07:43:41.755Z,67.69
2017-03-06T07:44:52.575Z,67.5
2017-03-06T07:46:03.384Z,66.83
2017-03-06T07:47:13.790Z,67.27
2017-03-06T07:48:24.587Z,67.5
2017-03-06T07:49:34.968Z,67.31
2017-03-06T07:50:45.389Z,67.6
2017-03-06T07:51:56.175Z,67.41
2017-03-06T07:53:06.954Z,67.79
2017-03-06T07:54:17.335Z,67.79
2017-03-06T07:55:28.125Z,67.88
2017-03-06T07:56:38.960Z,68.07
2017-03-06T07:57:49.413Z,67.79
2017-03-06T07:59:00.190Z,67.79
2017-03-06T08:00:10.987Z,68.17
2017-03-06T08:01:21.370Z,67.31
2017-03-06T08:02:32.146Z,67.21
2017-03-06T08:03:42.947Z,67.54
2017-03-06T08:04:53.345Z,67.44
2017-03-06T08:06:04.161Z,67.63
2017-03-06T08:07:14.973Z,67.34
2017-03-06T08:08:24.966Z,67.25
2017-03-06T08:09:35.764Z,67.34
2017-03-06T08:10:45.740Z,67.34
2017-03-06T08:11:55.760Z,67.15
2017-03-06T08:13:06.528Z,67.41
2017-03-06T08:14:17.332Z,67.25
2017-03-06T08:15:28.120Z,67.63
2017-03-06T08:16:38.902Z,67.41
2017-03-06T08:17:49.689Z,67.5
2017-03-06T08:19:00.076Z,67.69
2017-03-06T08:20:10.854Z,67.5
2017-03-06T08:21:21.244Z,67.31
2017-03-06T08:22:32.082Z,67.98
2017-03-06T08:23:42.874Z,67.79
2017-03-06T08:24:53.710Z,67.5
2017-03-06T08:26:04.094Z,67.85
2017-03-06T08:27:14.878Z,67.69
2017-03-06T08:28:25.306Z,67.88
2017-03-06T08:29:35.682Z,67.69
2017-03-06T08:30:46.064Z,67.31
2017-03-06T08:31:56.850Z,67.69
2017-03-06T08:33:06.865Z,67.56
2017-03-06T08:34:17.249Z,67.94
2017-03-06T08:35:27.634Z,67.66
2017-03-06T08:36:38.425Z,67.76
2017-03-06T08:37:48.841Z,67.66
2017-03-06T08:38:59.254Z,67.85
2017-03-06T08:40:09.688Z,67.76
2017-03-06T08:41:19.692Z,68.04
2017-03-06T08:42:30.491Z,67.85
2017-03-06T08:43:40.896Z,67.66
2017-03-06T08:44:51.753Z,67.66
2017-03-06T08:46:02.522Z,67.18
2017-03-06T08:47:12.912Z,67.08
2017-03-06T08:48:22.895Z,67.85
2017-03-06T08:49:33.293Z,67.94
2017-03-06T08:50:44.050Z,67.27
2017-03-06T08:51:54.860Z,67.76
2017-03-06T08:53:05.671Z,67.94
2017-03-06T08:54:16.097Z,67.85
2017-03-06T08:55:26.188Z,67.94
2017-03-06T08:56:37.027Z,67.85
2017-03-06T08:57:47.810Z,67.18
2017-03-06T08:58:57.830Z,67.85
2017-03-06T09:00:08.625Z,67.08
2017-03-06T09:01:19.423Z,67.27
2017-03-06T09:02:30.239Z,66.83
2017-03-06T09:03:40.617Z,67.31
2017-03-06T09:04:51.019Z,67.11
2017-03-06T09:06:01.401Z,66.67
2017-03-06T09:07:11.012Z,66.45
2017-03-06T09:08:21.028Z,66.96
2017-03-06T09:09:31.035Z,66.77
2017-03-06T09:10:41.441Z,66.32
2017-03-06T09:11:51.827Z,66.61
2017-03-06T09:13:02.611Z,66.71
2017-03-06T09:14:13.391Z,66.61
2017-03-06T09:15:23.843Z,66.61
2017-03-06T09:16:34.626Z,66.89
2017-03-06T09:17:45.645Z,67.28
2017-03-06T09:18:56.034Z,67.28
2017-03-06T09:20:06.396Z,67.28
2017-03-06T09:21:16.786Z,67.38
2017-03-06T09:22:27.167Z,67.28
2017-03-06T09:23:37.187Z,67.28
2017-03-06T09:24:47.612Z,66.61
2017-03-06T09:25:57.639Z,66.71
2017-03-06T09:27:08.013Z,66.99
2017-03-06T09:28:18.798Z,66.71
2017-03-06T09:29:28.809Z,66.55
2017-03-06T09:30:39.185Z,66.45
2017-03-06T09:31:49.186Z,65.43
2017-03-06T09:32:59.954Z,65.62
2017-03-06T09:34:09.951Z,65.08
2017-03-06T09:35:20.740Z,64.59
2017-03-06T09:36:31.530Z,64.53
2017-03-06T09:37:41.608Z,64.53
2017-03-06T09:38:52.411Z,64.72
2017-03-06T09:40:03.196Z,64.53
2017-03-06T09:41:13.580Z,64.76
2017-03-06T09:42:23.583Z,64.76
2017-03-06T09:43:33.964Z,64.76
2017-03-06T09:44:44.756Z,64.76
2017-03-06T09:45:55.543Z,65.43
2017-03-06T09:47:06.332Z,65.05
2017-03-06T09:48:17.135Z,64.69
2017-03-06T09:49:27.539Z,64.79
2017-03-06T09:50:38.332Z,64.69
2017-03-06T09:51:48.746Z,65.01
2017-03-06T09:52:59.124Z,65.59
2017-03-06T09:54:09.556Z,65.88
2017-03-06T09:55:19.987Z,65.37
2017-03-06T09:56:30.000Z,66.33
2017-03-06T09:57:40.796Z,66.49
2017-03-06T09:58:51.222Z,66.64
2017-03-06T10:00:01.248Z,66.64
2017-03-06T10:01:11.231Z,67.22
2017-03-06T10:02:22.022Z,67.38
2017-03-06T10:03:32.811Z,67.47
2017-03-06T10:04:43.616Z,67.38
2017-03-06T10:05:53.584Z,67.09
2017-03-06T10:07:03.592Z,66.71
2017-03-06T10:08:13.211Z,66.8
2017-03-06T10:09:24.032Z,66.52
2017-03-06T10:10:34.799Z,66.61
2017-03-06T10:11:45.641Z,66.9
2017-03-06T10:12:56.117Z,67.29
2017-03-06T10:14:06.506Z,66.42
2017-03-06T10:15:17.307Z,66.9
2017-03-06T10:16:27.694Z,67.19
2017-03-06T10:17:38.495Z,66.33
2017-03-06T10:18:48.497Z,67
2017-03-06T10:19:59.270Z,66.71
2017-03-06T10:21:09.299Z,66.71
2017-03-06T10:22:19.715Z,66.52
2017-03-06T10:23:30.534Z,65.94
2017-03-06T10:24:40.931Z,65.56
2017-03-06T10:25:51.307Z,65.69
2017-03-06T10:27:02.141Z,65.59
2017-03-06T10:28:12.935Z,65.2
2017-03-06T10:29:23.332Z,65.2
2017-03-06T10:30:34.124Z,65.05
2017-03-06T10:31:44.120Z,65.23
2017-03-06T10:32:54.529Z,65.14
2017-03-06T10:34:05.302Z,65.43
2017-03-06T10:35:16.111Z,65.37
2017-03-06T10:36:26.493Z,65.17
2017-03-06T10:37:36.892Z,65.17
2017-03-06T10:38:47.727Z,65.37
2017-03-06T10:39:57.737Z,65.46
2017-03-06T10:41:08.128Z,64.6
2017-03-06T10:42:18.502Z,64.53
2017-03-06T10:43:28.905Z,64.73
2017-03-06T10:44:38.936Z,65.11
2017-03-06T10:45:49.329Z,65.5
2017-03-06T10:47:00.119Z,65.2
2017-03-06T10:48:10.895Z,65.88
2017-03-06T10:49:21.276Z,65.88
2017-03-06T10:50:31.268Z,65.69
2017-03-06T10:51:41.251Z,66.52
2017-03-06T10:52:52.050Z,67.1
2017-03-06T10:54:02.837Z,67.25
2017-03-06T10:55:13.248Z,67.32
2017-03-06T10:56:23.652Z,67.32
2017-03-06T10:57:33.653Z,67.38
2017-03-06T10:58:43.647Z,67.38
2017-03-06T10:59:54.026Z,67.57
2017-03-06T11:01:04.799Z,67.57
2017-03-06T11:02:14.409Z,67.38
2017-03-06T11:03:24.797Z,67.09
2017-03-06T11:04:35.193Z,66.61
2017-03-06T11:05:45.600Z,66.84
2017-03-06T11:06:55.201Z,66.16
2017-03-06T11:08:05.594Z,65.97
2017-03-06T11:09:15.185Z,65.81
2017-03-06T11:10:25.191Z,65.72
2017-03-06T11:11:35.584Z,65.53
2017-03-06T11:12:46.370Z,65.62
2017-03-06T11:13:57.166Z,65.66
2017-03-06T11:15:07.580Z,65.43
2017-03-06T11:16:17.995Z,65.66
2017-03-06T11:17:28.801Z,66.1
2017-03-06T11:18:39.593Z,66.3
2017-03-06T11:19:49.995Z,66.39
2017-03-06T11:21:00.787Z,66.39
2017-03-06T11:22:11.584Z,66.77
2017-03-06T11:23:21.996Z,66.36
2017-03-06T11:24:32.007Z,66.64
2017-03-06T11:25:42.824Z,66.36
2017-03-06T11:26:53.625Z,66.36
2017-03-06T11:28:04.397Z,66.55
2017-03-06T11:29:14.393Z,66.07
2017-03-06T11:30:24.380Z,66.36
2017-03-06T11:31:35.208Z,66.46
2017-03-06T11:32:45.611Z,67.13
2017-03-06T11:33:55.637Z,66.74
2017-03-06T11:35:06.034Z,67.03
2017-03-06T11:36:17.088Z,66.93
2017-03-06T11:37:27.861Z,67
2017-03-06T11:38:37.458Z,66.9
2017-03-06T11:39:48.249Z,67.38
2017-03-06T11:40:59.041Z,67.47
2017-03-06T11:42:09.068Z,67
2017-03-06T11:43:19.501Z,67.38
2017-03-06T11:44:29.546Z,66.8
2017-03-06T11:45:38.817Z,66.9
2017-03-06T11:46:49.649Z,66.52
2017-03-06T11:48:00.485Z,66.42
2017-03-06T11:49:10.935Z,66.8
2017-03-06T11:50:21.753Z,66.52
2017-03-06T11:51:32.159Z,66.42
2017-03-06T11:52:42.564Z,66.55
2017-03-06T11:53:53.391Z,66.36
2017-03-06T11:55:03.809Z,65.97
2017-03-06T11:56:14.597Z,65.97
2017-03-06T11:57:25.378Z,66.07
2017-03-06T11:58:34.984Z,66.36
2017-03-06T11:59:45.773Z,66.64
2017-03-06T12:00:56.178Z,66.55
2017-03-06T12:02:06.987Z,66.9
2017-03-06T12:03:17.783Z,66.9
2017-03-06T12:04:27.421Z,66.8
2017-03-06T12:05:37.842Z,66.9
2017-03-06T12:06:47.418Z,66.84
2017-03-06T12:07:58.266Z,67.09
2017-03-06T12:09:09.073Z,66.71
2017-03-06T12:10:19.497Z,66.55
2017-03-06T12:11:29.913Z,66.84
2017-03-06T12:12:40.695Z,66.55
2017-03-06T12:13:51.506Z,66.55
2017-03-06T12:15:02.291Z,66.84
2017-03-06T12:16:13.100Z,66.93
2017-03-06T12:17:22.710Z,66.8
2017-03-06T12:18:32.712Z,66.9
2017-03-06T12:19:43.136Z,67.29
2017-03-06T12:20:53.566Z,67.54
2017-03-06T12:22:04.382Z,67.54
2017-03-06T12:23:15.193Z,67.35
2017-03-06T12:24:25.595Z,67.35
2017-03-06T12:25:35.592Z,66.67
2017-03-06T12:26:46.379Z,66.71
2017-03-06T12:27:56.747Z,67.09
2017-03-06T12:29:07.153Z,66.61
2017-03-06T12:30:17.167Z,66.52
2017-03-06T12:31:27.199Z,66.71
2017-03-06T12:32:37.611Z,66.52
2017-03-06T12:33:48.054Z,66.42
2017-03-06T12:34:58.070Z,66.42
2017-03-06T12:36:08.090Z,66.52
2017-03-06T12:37:18.475Z,66.42
2017-03-06T12:38:28.875Z,66.9
2017-03-06T12:39:38.868Z,66.71
2017-03-06T12:40:49.266Z,66.36
2017-03-06T12:41:59.301Z,66.26
2017-03-06T12:43:10.137Z,66.16
2017-03-06T12:44:20.560Z,66.36
2017-03-06T12:45:30.972Z,65.69
2017-03-06T12:46:41.772Z,65.78
2017-03-06T12:47:52.560Z,65.14
2017-03-06T12:49:03.366Z,64.69
2017-03-06T12:50:13.818Z,64.25
2017-03-06T12:51:24.212Z,63.99
2017-03-06T12:52:34.997Z,63.7
2017-03-06T12:53:45.825Z,63.99
2017-03-06T12:54:56.225Z,64.28
2017-03-06T12:56:06.641Z,64.28
2017-03-06T12:57:17.467Z,64.95
2017-03-06T12:58:27.881Z,64.86
2017-03-06T12:59:38.282Z,65.24
2017-03-06T13:00:49.098Z,65.88
2017-03-06T13:01:59.518Z,65.5
2017-03-06T13:03:10.311Z,65.97
2017-03-06T13:04:20.705Z,66.07
2017-03-06T13:05:31.527Z,66.46
2017-03-06T13:06:42.350Z,66.55
2017-03-06T13:07:53.148Z,66.84
2017-03-06T13:09:03.562Z,66.84
2017-03-06T13:10:13.969Z,67.38
2017-03-06T13:11:24.373Z,67.83
2017-03-06T13:12:34.364Z,68.76
2017-03-06T13:13:45.237Z,69.3
2017-03-06T13:14:55.300Z,69.26
2017-03-06T13:16:06.130Z,69.36
2017-03-06T13:17:16.530Z,69.46
2017-03-06T13:18:26.981Z,69.42
2017-03-06T13:19:37.397Z,69.62
2017-03-06T13:20:47.801Z,69.23
2017-03-06T13:21:57.812Z,68.95
2017-03-06T13:23:08.616Z,68.95
2017-03-06T13:24:18.630Z,69.52
2017-03-06T13:25:29.451Z,68.72
2017-03-06T13:26:40.236Z,68.81
2017-03-06T13:27:50.640Z,67.66
2017-03-06T13:29:01.444Z,67.73
2017-03-06T13:30:11.870Z,66.61
2017-03-06T13:31:22.665Z,66.61
2017-03-06T13:32:33.474Z,66.52
2017-03-06T13:33:44.303Z,67.38
2017-03-06T13:34:54.737Z,67.92
2017-03-06T13:36:05.553Z,68.12
2017-03-06T13:37:16.328Z,68.27
2017-03-06T13:38:26.400Z,68.46
2017-03-06T13:39:36.026Z,68.52
2017-03-06T13:40:46.001Z,68.81
2017-03-06T13:41:56.420Z,69.01
2017-03-06T13:43:06.427Z,68.81
2017-03-06T13:44:16.821Z,68.87
2017-03-06T13:45:27.218Z,68.68
2017-03-06T13:46:38.036Z,68.68
2017-03-06T13:47:48.070Z,68.78
2017-03-06T13:48:58.461Z,68.87
2017-03-06T13:50:08.500Z,68.4
2017-03-06T13:51:18.898Z,68.3
2017-03-06T13:52:29.309Z,68.05
2017-03-06T13:53:39.684Z,67.85
2017-03-06T13:54:50.483Z,67.85
2017-03-06T13:56:00.885Z,68.05
2017-03-06T13:57:11.684Z,67.41
2017-03-06T13:58:22.538Z,67.32
2017-03-06T13:59:32.934Z,67.69
2017-03-06T14:00:43.709Z,67.35
2017-03-06T14:01:54.503Z,67.83
2017-03-06T14:03:04.915Z,67.44
2017-03-06T14:04:14.533Z,67.35
2017-03-06T14:05:25.346Z,67.44
2017-03-06T14:06:35.771Z,67.25
2017-03-06T14:07:45.790Z,67.44
2017-03-06T14:08:56.206Z,67.35
2017-03-06T14:10:06.626Z,67.89
2017-03-06T14:11:17.453Z,67.79
2017-03-06T14:12:27.892Z,68.18
2017-03-06T14:13:38.277Z,67.69
2017-03-06T14:14:48.284Z,67.69
2017-03-06T14:15:59.119Z,67.99
2017-03-06T14:17:09.565Z,67.69
2017-03-06T14:18:19.973Z,67.69
2017-03-06T14:19:30.389Z,67.02
2017-03-06T14:20:40.795Z,67.12
2017-03-06T14:21:51.202Z,67.06
2017-03-06T14:23:01.218Z,65.94
2017-03-06T14:24:11.599Z,65.59
2017-03-06T14:25:21.980Z,65.88
2017-03-06T14:26:32.385Z,65.78
2017-03-06T14:27:42.803Z,65.62
2017-03-06T14:28:53.608Z,65.81
2017-03-06T14:30:03.618Z,66.36
2017-03-06T14:31:13.657Z,66.93
2017-03-06T14:32:24.455Z,66.64
2017-03-06T14:33:34.060Z,67.13
2017-03-06T14:34:44.883Z,67.22
2017-03-06T14:35:55.277Z,67.67
2017-03-06T14:37:06.094Z,67.47
2017-03-06T14:38:16.892Z,67.96
2017-03-06T14:39:26.942Z,68.02
2017-03-06T14:40:37.745Z,67.83
2017-03-06T14:41:48.547Z,67.83
2017-03-06T14:42:59.332Z,67.73
2017-03-06T14:44:09.763Z,67.63
2017-03-06T14:45:20.560Z,68.21
2017-03-06T14:46:31.376Z,68.02
2017-03-06T14:47:41.775Z,67.6
2017-03-06T14:48:52.178Z,68.27
2017-03-06T14:50:02.986Z,68.66
2017-03-06T14:51:13.400Z,68.08
2017-03-06T14:52:24.209Z,68.33
2017-03-06T14:53:34.620Z,68.43
2017-03-06T14:54:45.021Z,68.52
2017-03-06T14:55:55.819Z,68.72
2017-03-06T14:57:06.237Z,68.14
2017-03-06T14:58:17.041Z,68.33
2017-03-06T14:59:27.847Z,68.33
2017-03-06T15:00:38.668Z,68.33
2017-03-06T15:01:48.687Z,67.85
2017-03-06T15:02:59.078Z,68.08
2017-03-06T15:04:09.884Z,67.5
2017-03-06T15:05:20.289Z,68.52
2017-03-06T15:06:31.120Z,68.33
2017-03-06T15:07:41.941Z,68.33
2017-03-06T15:08:52.728Z,68.33
2017-03-06T15:10:03.515Z,68.05
2017-03-06T15:11:13.893Z,68.05
2017-03-06T15:12:24.303Z,67.66
2017-03-06T15:13:35.112Z,67.76
2017-03-06T15:14:45.531Z,67.57
2017-03-06T15:15:55.935Z,67.66
2017-03-06T15:17:06.745Z,68.05
2017-03-06T15:18:17.572Z,68.33
2017-03-06T15:19:28.378Z,68.24
2017-03-06T15:20:39.159Z,68.52
2017-03-06T15:21:49.580Z,68.3
2017-03-06T15:22:59.991Z,68.3
2017-03-06T15:24:10.399Z,68.59
2017-03-06T15:25:20.019Z,69.17
2017-03-06T15:26:30.413Z,69.26
2017-03-06T15:27:40.441Z,69.03
2017-03-06T15:28:51.251Z,69.23
2017-03-06T15:30:02.042Z,69.13
2017-03-06T15:31:12.879Z,68.84
2017-03-06T15:32:23.686Z,68.94
2017-03-06T15:33:34.106Z,69.03
2017-03-06T15:34:44.522Z,68.8
2017-03-06T15:35:55.341Z,69.29
2017-03-06T15:37:06.186Z,69.38
2017-03-06T15:38:16.985Z,68.8
2017-03-06T15:39:28.026Z,69.09
2017-03-06T15:40:39.067Z,69.19